Time;durP1;ratioP1;P1;durP2;ratioP2;P2;SDS_P1;SDS_P2;PMS_P1;PMS_P2;Temp;Humidity;BMP_temperature;BMP_pressure;BME280_temperature;BME280_humidity;BME280_pressure;Samples;Min_cycle;Max_cycle;Signal;HPM_P1;HPM_P2
2023/11/16 00:00:12;;;;;;;5.35;2.10;;;;;;;5.04;nan;96205.81;2042517;29;20050;-53
2023/11/16 00:01:17;;;;;;;5.10;1.30;;;;;;;5.03;nan;96200.72;2042694;29;20048;-53
2023/11/16 00:02:19;;;;;;;3.63;1.10;;;;;;;5.08;nan;96202.28;2042186;29;20456;-53
2023/11/16 00:03:20;;;;;;;4.00;1.23;;;;;;;5.08;nan;96202.28;2042393;29;20035;-54
2023/11/16 00:04:21;;;;;;;7.45;1.80;;;;;;;5.11;nan;96208.25;2042437;29;20052;-53
2023/11/16 00:05:22;;;;;;;8.23;1.23;;;;;;;5.09;nan;96192.84;2041412;29;20062;-53
2023/11/16 00:06:24;;;;;;;10.10;1.73;;;;;;;5.16;nan;96202.13;2041559;29;20487;-54
2023/11/16 00:07:27;;;;;;;6.05;1.90;;;;;;;5.15;nan;96197.84;2042258;29;20044;-54
2023/11/16 00:08:29;;;;;;;5.72;1.30;;;;;;;5.15;nan;96197.84;2042133;29;20614;-53
2023/11/16 00:09:30;;;;;;;3.40;1.10;;;;;;;5.16;nan;96191.81;2041970;29;20051;-53
2023/11/16 00:10:34;;;;;;;2.67;1.00;;;;;;;5.16;nan;96188.38;2041464;29;20051;-53
2023/11/16 00:11:40;;;;;;;2.30;0.73;;;;;;;5.16;nan;96201.25;2042023;29;20048;-53
2023/11/16 00:12:42;;;;;;;3.53;1.35;;;;;;;5.19;nan;96196.06;2042113;29;20425;-54
2023/11/16 00:13:44;;;;;;;9.50;1.55;;;;;;;5.17;nan;96196.09;2042421;29;20044;-53
2023/11/16 00:14:45;;;;;;;6.03;1.48;;;;;;;5.21;nan;96196.84;2042615;29;20054;-54
2023/11/16 00:15:46;;;;;;;6.15;2.13;;;;;;;5.19;nan;96199.47;2042455;29;20039;-53
2023/11/16 00:16:48;;;;;;;7.82;1.88;;;;;;;5.15;nan;96202.16;2042740;29;20047;-53
2023/11/16 00:17:49;;;;;;;1.73;0.80;;;;;;;5.11;nan;96188.50;2042099;29;20051;-53
2023/11/16 00:18:51;;;;;;;6.03;1.77;;;;;;;5.09;nan;96198.81;2042508;29;20051;-53
2023/11/16 00:19:52;;;;;;;4.43;1.58;;;;;;;5.09;nan;96205.72;2042257;29;20068;-54
2023/11/16 00:20:55;;;;;;;4.50;1.50;;;;;;;5.08;nan;96194.56;2042352;29;20036;-53
2023/11/16 00:21:56;;;;;;;3.90;1.42;;;;;;;5.11;nan;96197.97;2042489;29;20043;-54
2023/11/16 00:22:58;;;;;;;4.15;0.73;;;;;;;5.08;nan;96204.03;2042559;29;20062;-53
2023/11/16 00:23:59;;;;;;;5.43;1.92;;;;;;;5.08;nan;96197.16;2042408;29;20047;-53
2023/11/16 00:25:05;;;;;;;5.88;1.85;;;;;;;5.11;nan;96203.13;2042202;29;20043;-53
2023/11/16 00:26:10;;;;;;;3.65;1.58;;;;;;;5.18;nan;96204.66;2042587;29;20051;-53
2023/11/16 00:27:12;;;;;;;5.22;1.88;;;;;;;5.19;nan;96203.78;2033671;29;20044;-53
2023/11/16 00:28:14;;;;;;;4.60;1.25;;;;;;;5.18;nan;96205.50;2033605;29;20055;-53
2023/11/16 00:29:16;;;;;;;2.88;1.27;;;;;;;5.23;nan;96206.22;2042052;29;20051;-53
2023/11/16 00:30:17;;;;;;;4.93;1.52;;;;;;;5.20;nan;96211.47;2042200;29;20047;-53
2023/11/16 00:31:18;;;;;;;4.60;1.63;;;;;;;5.20;nan;96196.00;2042202;29;20051;-54
2023/11/16 00:32:20;;;;;;;6.78;1.63;;;;;;;5.18;nan;96199.50;2042160;29;20051;-53
2023/11/16 00:33:21;;;;;;;7.38;1.52;;;;;;;5.18;nan;96202.91;2033901;29;20048;-53
2023/11/16 00:34:22;;;;;;;2.65;0.88;;;;;;;5.22;nan;96208.88;2034057;29;20044;-53
2023/11/16 00:35:23;;;;;;;4.05;1.00;;;;;;;5.22;nan;96203.72;2041806;29;20055;-53
2023/11/16 00:36:24;;;;;;;7.43;1.55;;;;;;;5.24;nan;96204.53;2041338;29;20063;-53
2023/11/16 00:37:25;;;;;;;6.53;1.48;;;;;;;5.25;nan;96208.78;2041757;29;20040;-54
2023/11/16 00:38:27;;;;;;;4.55;1.73;;;;;;;5.25;nan;96204.47;2042166;29;20381;-53
2023/11/16 00:39:28;;;;;;;5.65;1.60;;;;;;;5.25;nan;96211.38;2042114;29;20067;-54
2023/11/16 00:40:32;;;;;;;5.53;1.67;;;;;;;5.23;nan;96206.22;2033663;29;20568;-54
2023/11/16 00:41:35;;;;;;;6.28;1.65;;;;;;;5.20;nan;96210.63;2033777;29;20056;-53
2023/11/16 00:42:36;;;;;;;8.75;1.45;;;;;;;5.19;nan;96206.38;2041848;29;20046;-53
2023/11/16 00:43:39;;;;;;;2.78;1.00;;;;;;;5.19;nan;96203.78;2041010;29;20047;-54
2023/11/16 00:44:40;;;;;;;7.78;2.13;;;;;;;5.16;nan;96199.56;2041507;29;20043;-53
2023/11/16 00:45:43;;;;;;;4.00;0.98;;;;;;;5.13;nan;96201.34;2042220;29;20047;-53
2023/11/16 00:46:44;;;;;;;4.07;1.33;;;;;;;5.13;nan;96203.91;2042217;29;20038;-54
2023/11/16 00:47:45;;;;;;;4.93;1.25;;;;;;;5.11;nan;96198.81;2041776;29;20404;-53
2023/11/16 00:48:46;;;;;;;3.65;1.67;;;;;;;5.08;nan;96197.16;2042316;29;20035;-53
2023/11/16 00:49:47;;;;;;;3.53;1.10;;;;;;;5.02;nan;96189.53;2033372;29;20048;-53
2023/11/16 00:50:48;;;;;;;6.43;2.20;;;;;;;5.02;nan;96186.97;2033648;29;20159;-53
2023/11/16 00:51:50;;;;;;;10.23;1.60;;;;;;;4.99;nan;96197.34;2041671;29;20055;-54
2023/11/16 00:52:53;;;;;;;4.05;1.30;;;;;;;4.96;nan;96187.13;2042233;29;20067;-54
2023/11/16 00:53:55;;;;;;;2.38;1.08;;;;;;;4.93;nan;96189.75;2033592;29;20044;-53
2023/11/16 00:54:57;;;;;;;4.28;1.30;;;;;;;4.90;nan;96189.84;2033673;29;20051;-53
2023/11/16 00:55:58;;;;;;;3.95;1.23;;;;;;;4.88;nan;96190.75;2041679;29;20047;-54
2023/11/16 00:56:59;;;;;;;4.95;1.58;;;;;;;4.87;nan;96184.75;2033838;29;20480;-54
2023/11/16 00:58:03;;;;;;;3.25;1.52;;;;;;;4.85;nan;96189.09;2033997;29;20056;-53
2023/11/16 00:59:05;;;;;;;6.63;1.55;;;;;;;4.79;nan;96190.06;2040950;29;20078;-54
2023/11/16 01:00:10;;;;;;;5.22;1.13;;;;;;;4.80;nan;96191.75;2040944;29;20051;-53
2023/11/16 01:01:12;;;;;;;6.25;1.38;;;;;;;4.78;nan;96190.91;2042206;29;20123;-53
2023/11/16 01:02:14;;;;;;;2.40;0.55;;;;;;;4.81;nan;96187.44;2042189;29;20380;-53
2023/11/16 01:03:15;;;;;;;1.67;0.75;;;;;;;4.78;nan;96179.78;2033502;29;20051;-54
2023/11/16 01:04:17;;;;;;;2.80;1.00;;;;;;;4.83;nan;96183.13;2032890;29;20055;-53
2023/11/16 01:05:18;;;;;;;9.18;1.42;;;;;;;4.81;nan;96183.16;2042279;29;20460;-53
2023/11/16 01:06:19;;;;;;;6.80;1.73;;;;;;;4.79;nan;96189.22;2033743;29;20112;-53
2023/11/16 01:07:21;;;;;;;5.78;1.20;;;;;;;4.76;nan;96191.88;2033625;29;20410;-53
2023/11/16 01:08:22;;;;;;;5.45;1.17;;;;;;;4.75;nan;96185.84;2042130;29;20043;-53
2023/11/16 01:09:23;;;;;;;3.92;1.10;;;;;;;4.75;nan;96190.16;2032840;29;20052;-53
2023/11/16 01:10:29;;;;;;;3.47;1.23;;;;;;;4.73;nan;96190.19;2025454;29;20063;-53
2023/11/16 01:11:30;;;;;;;8.43;1.35;;;;;;;4.74;nan;96193.63;2034374;29;20055;-54
2023/11/16 01:12:32;;;;;;;4.30;1.20;;;;;;;4.72;nan;96192.78;2041730;29;20056;-53
2023/11/16 01:13:38;;;;;;;4.05;0.85;;;;;;;4.74;nan;96198.75;2041537;29;20053;-53
2023/11/16 01:14:40;;;;;;;6.85;1.45;;;;;;;4.77;nan;96196.13;2042258;29;20400;-53
2023/11/16 01:15:41;;;;;;;6.72;1.55;;;;;;;4.75;nan;96193.56;2032981;29;20424;-53
2023/11/16 01:16:44;;;;;;;6.05;1.75;;;;;;;4.74;nan;96191.03;2033749;29;20036;-53
2023/11/16 01:17:45;;;;;;;6.13;1.30;;;;;;;4.76;nan;96192.69;2041231;29;20051;-53
2023/11/16 01:18:50;;;;;;;6.70;1.35;;;;;;;4.83;nan;96201.97;2041411;29;20504;-53
2023/11/16 01:19:51;;;;;;;6.13;1.30;;;;;;;4.83;nan;96190.84;2033516;29;20047;-53
2023/11/16 01:20:57;;;;;;;8.88;1.75;;;;;;;4.89;nan;96195.84;2033877;29;20036;-54
2023/11/16 01:22:00;;;;;;;5.45;1.20;;;;;;;4.89;nan;96190.69;2042178;29;20039;-53
2023/11/16 01:23:24;;;;;;;6.45;1.45;;;;;;;4.88;nan;96193.31;2041978;29;20050;-54
2023/11/16 01:24:23;;;;;;;5.53;1.52;;;;;;;4.86;nan;96204.50;2033221;29;20481;-53
2023/11/16 01:25:25;;;;;;;3.63;1.00;;;;;;;4.84;nan;96197.69;2033126;29;20503;-54
2023/11/16 01:26:28;;;;;;;5.43;1.52;;;;;;;4.85;nan;96192.50;2025830;29;20052;-53
2023/11/16 01:27:31;;;;;;;3.53;1.05;;;;;;;4.88;nan;96194.16;2033987;29;20516;-53
2023/11/16 01:28:35;;;;;;;2.90;1.15;;;;;;;4.92;nan;96192.34;2042031;29;20046;-53
2023/11/16 01:29:36;;;;;;;6.70;1.42;;;;;;;4.92;nan;96187.22;2032890;29;20102;-53
2023/11/16 01:30:37;;;;;;;4.15;1.30;;;;;;;4.86;nan;96180.47;2025694;29;20037;-53
2023/11/16 01:31:39;;;;;;;5.75;1.20;;;;;;;4.80;nan;96190.91;2033388;29;20040;-54
2023/11/16 01:32:41;;;;;;;9.60;1.80;;;;;;;4.77;nan;96190.97;2033163;29;20059;-53
2023/11/16 01:33:42;;;;;;;4.00;1.25;;;;;;;4.73;nan;96186.75;2040868;29;20427;-53
2023/11/16 01:34:44;;;;;;;4.90;1.10;;;;;;;4.69;nan;96183.41;2041259;29;20054;-53
2023/11/16 01:35:46;;;;;;;5.47;0.98;;;;;;;4.69;nan;96191.13;2041785;29;20056;-52
2023/11/16 01:36:49;;;;;;;3.75;1.20;;;;;;;4.68;nan;96192.03;2041462;29;20055;-53
2023/11/16 01:37:52;;;;;;;5.85;1.33;;;;;;;4.66;nan;96193.78;2033338;29;20432;-53
2023/11/16 01:38:53;;;;;;;5.57;1.50;;;;;;;4.63;nan;96186.13;2033678;29;20412;-54
2023/11/16 01:39:54;;;;;;;8.75;1.73;;;;;;;4.63;nan;96184.38;2041543;29;20042;-53
2023/11/16 01:40:55;;;;;;;3.05;1.13;;;;;;;4.60;nan;96196.47;2041789;29;20119;-53
2023/11/16 01:41:56;;;;;;;4.22;1.17;;;;;;;4.56;nan;96187.13;2041706;29;20048;-53
2023/11/16 01:42:57;;;;;;;3.45;1.25;;;;;;;4.57;nan;96186.22;2032673;29;20055;-53
2023/11/16 01:44:00;;;;;;;5.40;1.27;;;;;;;4.57;nan;96186.22;2025281;29;20067;-53
2023/11/16 01:45:01;;;;;;;6.10;1.35;;;;;;;4.58;nan;96191.34;2025308;29;20053;-53
2023/11/16 01:46:06;;;;;;;5.45;1.90;;;;;;;4.58;nan;96185.38;2032764;29;20071;-53
2023/11/16 01:47:08;;;;;;;7.60;1.40;;;;;;;4.56;nan;96187.97;2041748;29;20048;-53
2023/11/16 01:48:09;;;;;;;5.20;1.40;;;;;;;4.54;nan;96188.88;2025590;29;20465;-53
2023/11/16 01:49:12;;;;;;;7.95;1.60;;;;;;;4.52;nan;96188.91;2017892;29;20053;-53
2023/11/16 01:50:13;;;;;;;4.38;1.20;;;;;;;4.52;nan;96194.06;2033850;29;20055;-54
2023/11/16 01:51:15;;;;;;;2.13;0.80;;;;;;;4.54;nan;96187.13;2033149;29;20052;-54
2023/11/16 01:52:16;;;;;;;4.85;1.25;;;;;;;4.57;nan;96188.81;2010380;29;20402;-53
2023/11/16 01:53:17;;;;;;;6.40;1.42;;;;;;;4.55;nan;96191.41;2010157;29;20049;-53
2023/11/16 01:54:21;;;;;;;6.28;1.38;;;;;;;4.50;nan;96195.81;2033465;29;20052;-53
2023/11/16 01:55:22;;;;;;;6.30;1.35;;;;;;;4.43;nan;96189.94;2041426;29;20052;-53
2023/11/16 01:56:24;;;;;;;6.38;1.70;;;;;;;4.41;nan;96189.13;2033088;29;20056;-52
2023/11/16 01:57:25;;;;;;;5.95;1.42;;;;;;;4.45;nan;96187.34;2018128;29;20057;-53
2023/11/16 01:58:26;;;;;;;6.35;1.27;;;;;;;4.48;nan;96191.56;2025804;29;20397;-53
2023/11/16 01:59:28;;;;;;;5.47;1.30;;;;;;;4.49;nan;96190.69;2025554;29;20512;-54
2023/11/16 02:00:29;;;;;;;6.40;1.40;;;;;;;4.50;nan;96189.81;2025579;29;20417;-53
2023/11/16 02:01:31;;;;;;;5.57;1.65;;;;;;;4.45;nan;96181.34;2033516;29;20052;-53
2023/11/16 02:02:32;;;;;;;5.72;1.45;;;;;;;4.40;nan;96189.16;2017978;29;20105;-53
2023/11/16 02:03:33;;;;;;;5.63;1.60;;;;;;;4.37;nan;96189.22;2010668;29;20030;-53
2023/11/16 02:04:35;;;;;;;3.22;1.75;;;;;;;4.35;nan;96184.09;2024691;29;20063;-54
2023/11/16 02:05:37;;;;;;;5.88;1.50;;;;;;;4.39;nan;96192.63;2041792;29;20051;-54
2023/11/16 02:06:40;;;;;;;4.40;1.23;;;;;;;4.41;nan;96189.13;2041845;29;20047;-53
2023/11/16 02:07:41;;;;;;;4.05;1.00;;;;;;;4.40;nan;96187.41;2042017;29;20400;-54
2023/11/16 02:08:42;;;;;;;3.63;1.15;;;;;;;4.42;nan;96188.25;2040389;29;20067;-53
2023/11/16 02:09:43;;;;;;;3.60;1.83;;;;;;;4.40;nan;96189.16;2033476;29;20048;-53
2023/11/16 02:10:45;;;;;;;8.10;1.75;;;;;;;4.37;nan;96187.47;2033442;29;20525;-53
2023/11/16 02:11:46;;;;;;;5.22;1.70;;;;;;;4.33;nan;96188.44;2033308;29;20042;-53
2023/11/16 02:12:53;;;;;;;4.93;1.27;;;;;;;4.33;nan;96185.00;2033325;29;20044;-53
2023/11/16 02:13:55;;;;;;;5.43;1.42;;;;;;;4.40;nan;96187.41;2040622;29;20428;-53
2023/11/16 02:14:57;;;;;;;6.78;1.42;;;;;;;4.37;nan;96189.22;2033462;29;20028;-53
2023/11/16 02:15:58;;;;;;;6.07;1.00;;;;;;;4.36;nan;96190.09;2025441;29;20075;-53
2023/11/16 02:16:59;;;;;;;4.47;2.00;;;;;;;4.40;nan;96194.28;2025555;29;20049;-53
2023/11/16 02:18:01;;;;;;;4.85;1.35;;;;;;;4.42;nan;96192.53;2025555;29;20060;-53
2023/11/16 02:19:20;;;;;;;8.02;1.42;;;;;;;4.39;nan;96195.19;2033128;29;20490;-54
2023/11/16 02:20:23;;;;;;;7.40;1.60;;;;;;;4.39;nan;96190.03;2032927;29;20056;-53
2023/11/16 02:21:26;;;;;;;6.43;1.38;;;;;;;4.38;nan;96196.91;2033501;29;20055;-53
2023/11/16 02:22:27;;;;;;;4.20;1.20;;;;;;;4.38;nan;96186.63;2033172;29;20052;-53
2023/11/16 02:23:29;;;;;;;5.32;1.35;;;;;;;4.40;nan;96191.72;2017475;29;20417;-53
2023/11/16 02:24:32;;;;;;;7.85;1.60;;;;;;;4.40;nan;96189.16;2025888;29;20048;-53
2023/11/16 02:25:47;;;;;;;6.72;1.30;;;;;;;4.40;nan;96186.59;2041587;29;20048;-54
2023/11/16 02:26:48;;;;;;;6.68;0.95;;;;;;;4.37;nan;96178.94;2033445;29;20044;-53
2023/11/16 02:27:49;;;;;;;3.83;0.93;;;;;;;4.37;nan;96176.34;2025625;29;20036;-53
2023/11/16 02:28:51;;;;;;;7.35;1.58;;;;;;;4.42;nan;96183.09;2033374;29;20044;-53
2023/11/16 02:29:52;;;;;;;4.93;1.40;;;;;;;4.43;nan;96181.38;2041568;29;20051;-54
2023/11/16 02:30:53;;;;;;;6.65;1.38;;;;;;;4.40;nan;96178.88;2041802;29;20047;-53
2023/11/16 02:31:54;;;;;;;6.68;1.70;;;;;;;4.39;nan;96177.19;2041432;29;20047;-53
2023/11/16 02:32:55;;;;;;;5.28;1.55;;;;;;;4.37;nan;96173.78;2032521;29;20052;-54
2023/11/16 02:33:57;;;;;;;10.57;2.00;;;;;;;4.37;nan;96177.19;2032323;29;20428;-53
2023/11/16 02:34:58;;;;;;;4.25;1.45;;;;;;;4.32;nan;96173.03;2041152;29;20039;-53
2023/11/16 02:35:59;;;;;;;6.45;1.67;;;;;;;4.34;nan;96171.28;2033031;29;20051;-57
2023/11/16 02:37:01;;;;;;;5.00;1.30;;;;;;;4.37;nan;96166.91;2033870;29;20051;-54
2023/11/16 02:38:03;;;;;;;3.92;1.10;;;;;;;4.42;nan;96177.13;2042297;29;20055;-53
2023/11/16 02:39:06;;;;;;;7.90;2.00;;;;;;;4.41;nan;96172.84;2033608;29;20077;-52
2023/11/16 02:40:09;;;;;;;1.58;0.75;;;;;;;4.40;nan;96166.84;2033629;29;20063;-54
2023/11/16 02:41:11;;;;;;;6.18;1.75;;;;;;;4.47;nan;96175.31;2033956;29;20440;-53
2023/11/16 02:42:13;;;;;;;4.85;1.00;;;;;;;4.49;nan;96178.69;2034040;29;20170;-53
2023/11/16 02:43:14;;;;;;;6.53;1.52;;;;;;;4.53;nan;96180.31;2034231;29;20059;-53
2023/11/16 02:44:18;;;;;;;5.63;1.30;;;;;;;4.56;nan;96175.09;2025475;29;20052;-54
2023/11/16 02:45:22;;;;;;;5.20;1.70;;;;;;;4.59;nan;96180.19;2026232;29;20445;-54
2023/11/16 02:46:23;;;;;;;5.82;1.95;;;;;;;4.63;nan;96178.41;2033470;29;20052;-53
2023/11/16 02:47:25;;;;;;;5.72;1.42;;;;;;;4.69;nan;96185.16;2033510;29;20146;-52
2023/11/16 02:48:26;;;;;;;6.10;1.45;;;;;;;4.72;nan;96177.34;2033431;29;20052;-55
2023/11/16 02:49:27;;;;;;;9.27;1.52;;;;;;;4.76;nan;96174.69;2033224;29;20052;-54
2023/11/16 02:50:28;;;;;;;4.68;1.27;;;;;;;4.83;nan;96173.66;2033105;29;20056;-54
2023/11/16 02:51:31;;;;;;;6.35;1.27;;;;;;;4.89;nan;96175.25;2033218;29;20060;-54
2023/11/16 02:52:32;;;;;;;7.13;1.40;;;;;;;4.90;nan;96171.81;2035119;29;20492;-54
2023/11/16 02:53:34;;;;;;;3.70;1.00;;;;;;;4.95;nan;96169.16;2034838;29;20059;-53
2023/11/16 02:54:38;;;;;;;2.47;0.75;;;;;;;5.01;nan;96171.56;2034349;29;20051;-53
2023/11/16 02:55:39;;;;;;;6.60;1.60;;;;;;;5.08;nan;96171.41;2033987;29;20469;-54
2023/11/16 02:56:40;;;;;;;2.60;0.95;;;;;;;5.10;nan;96173.94;2034815;29;20052;-53
2023/11/16 02:57:41;;;;;;;5.93;1.65;;;;;;;5.11;nan;96165.34;2034871;29;20044;-54
2023/11/16 02:58:44;;;;;;;8.70;1.95;;;;;;;5.10;nan;96168.78;2034626;29;20040;-53
2023/11/16 02:59:45;;;;;;;4.13;1.10;;;;;;;5.15;nan;96166.09;2034696;29;20044;-53
2023/11/16 03:00:47;;;;;;;5.47;1.40;;;;;;;5.11;nan;96160.19;2034562;29;20114;-54
2023/11/16 03:01:48;;;;;;;4.05;1.33;;;;;;;5.16;nan;96170.38;2034491;29;20044;-53
2023/11/16 03:02:49;;;;;;;8.45;1.20;;;;;;;5.16;nan;96160.94;2034622;29;20036;-54
2023/11/16 03:03:50;;;;;;;5.85;1.58;;;;;;;5.16;nan;96166.09;2026842;29;20067;-53
2023/11/16 03:04:51;;;;;;;4.07;0.80;;;;;;;5.17;nan;96154.91;2033514;29;20052;-53
2023/11/16 03:05:52;;;;;;;3.25;1.20;;;;;;;5.17;nan;96157.47;2035299;29;20058;-53
2023/11/16 03:06:53;;;;;;;6.95;1.42;;;;;;;5.16;nan;96153.22;2035077;29;20043;-53
2023/11/16 03:07:55;;;;;;;11.90;1.65;;;;;;;5.21;nan;96153.97;2034574;29;20052;-54
2023/11/16 03:08:56;;;;;;;2.90;0.93;;;;;;;5.24;nan;96153.88;2033823;29;20056;-54
2023/11/16 03:09:57;;;;;;;6.38;1.27;;;;;;;5.25;nan;96155.56;2035234;29;20503;-53
2023/11/16 03:11:00;;;;;;;6.30;1.10;;;;;;;5.22;nan;96158.22;2034963;29;20040;-54
2023/11/16 03:12:01;;;;;;;9.77;1.50;;;;;;;5.21;nan;96160.81;2034967;29;20524;-53
2023/11/16 03:13:03;;;;;;;4.72;1.15;;;;;;;5.26;nan;96157.25;2034407;29;20044;-53
2023/11/16 03:14:04;;;;;;;9.63;2.10;;;;;;;5.29;nan;96164.03;2033778;29;20056;-53
2023/11/16 03:15:06;;;;;;;7.60;1.50;;;;;;;5.29;nan;96159.75;2034715;29;20091;-53
2023/11/16 03:16:08;;;;;;;7.43;1.02;;;;;;;5.32;nan;96166.56;2034961;29;20060;-53
2023/11/16 03:17:10;;;;;;;4.43;1.08;;;;;;;5.33;nan;96165.69;2035006;29;20048;-53
2023/11/16 03:18:14;;;;;;;3.95;1.30;;;;;;;5.34;nan;96166.53;2034757;29;20060;-53
2023/11/16 03:19:16;;;;;;;7.07;1.50;;;;;;;5.31;nan;96157.97;2035178;29;20043;-54
2023/11/16 03:20:17;;;;;;;10.85;1.85;;;;;;;5.33;nan;96160.53;2034895;29;20481;-53
2023/11/16 03:21:18;;;;;;;7.93;1.23;;;;;;;5.34;nan;96145.91;2035024;29;20032;-53
2023/11/16 03:22:19;;;;;;;6.75;1.13;;;;;;;5.35;nan;96160.50;2035185;29;20040;-53
2023/11/16 03:23:20;;;;;;;6.78;1.20;;;;;;;5.39;nan;96155.22;2034996;29;20044;-53
2023/11/16 03:24:22;;;;;;;6.88;1.25;;;;;;;5.42;nan;96154.31;2034946;29;20056;-53
2023/11/16 03:25:24;;;;;;;5.78;1.20;;;;;;;5.41;nan;96157.78;2034863;29;20051;-54
2023/11/16 03:26:25;;;;;;;3.90;1.05;;;;;;;5.43;nan;96156.84;2034930;29;20048;-53
2023/11/16 03:27:26;;;;;;;3.20;1.63;;;;;;;5.44;nan;96161.09;2034334;29;20507;-53
2023/11/16 03:28:28;;;;;;;6.45;1.52;;;;;;;5.44;nan;96162.84;2034623;29;20047;-53
2023/11/16 03:29:33;;;;;;;7.03;1.20;;;;;;;5.47;nan;96158.44;2033347;29;20118;-53
2023/11/16 03:30:35;;;;;;;6.82;1.65;;;;;;;5.49;nan;96150.69;2034030;29;20051;-53
2023/11/16 03:31:36;;;;;;;5.47;1.40;;;;;;;5.44;nan;96155.97;2033625;29;20087;-53
2023/11/16 03:32:37;;;;;;;3.28;1.02;;;;;;;5.48;nan;96155.00;2025447;29;20056;-53
2023/11/16 03:33:40;;;;;;;3.78;1.20;;;;;;;5.51;nan;96154.09;2026131;29;20047;-54
2023/11/16 03:34:41;;;;;;;4.82;1.35;;;;;;;5.57;nan;96153.94;2033956;29;20052;-53
2023/11/16 03:35:48;;;;;;;3.25;1.40;;;;;;;5.59;nan;96157.31;2034137;29;20032;-53
2023/11/16 03:36:49;;;;;;;5.95;1.75;;;;;;;5.57;nan;96159.09;2033742;29;20052;-53
2023/11/16 03:37:50;;;;;;;8.00;1.67;;;;;;;5.56;nan;96152.25;2034497;29;20048;-53
2023/11/16 03:38:51;;;;;;;5.38;1.17;;;;;;;5.57;nan;96161.66;2033889;29;20064;-54
2023/11/16 03:39:54;;;;;;;8.65;1.67;;;;;;;5.57;nan;96158.25;2033231;29;20052;-53
2023/11/16 03:40:56;;;;;;;5.72;1.50;;;;;;;5.56;nan;96156.53;2026731;29;20470;-55
2023/11/16 03:42:00;;;;;;;5.28;1.13;;;;;;;5.53;nan;96162.59;2034258;29;20110;-53
2023/11/16 03:43:02;;;;;;;4.72;1.17;;;;;;;5.52;nan;96156.63;2042038;29;20504;-53
2023/11/16 03:44:03;;;;;;;7.38;1.55;;;;;;;5.55;nan;96160.00;2041544;29;20051;-54
2023/11/16 03:45:05;;;;;;;5.50;1.30;;;;;;;5.53;nan;96165.19;2034800;29;20048;-53
2023/11/16 03:46:08;;;;;;;3.20;1.38;;;;;;;5.52;nan;96164.34;2034434;29;20048;-53
2023/11/16 03:47:09;;;;;;;5.70;1.40;;;;;;;5.53;nan;96162.59;2034813;29;20392;-53
2023/11/16 03:48:11;;;;;;;4.30;1.25;;;;;;;5.51;nan;96159.25;2034451;29;20503;-53
2023/11/16 03:49:14;;;;;;;7.10;1.73;;;;;;;5.50;nan;96160.94;2034968;29;20055;-53
2023/11/16 03:50:16;;;;;;;3.78;1.00;;;;;;;5.51;nan;96157.50;2034778;29;20060;-53
2023/11/16 03:51:17;;;;;;;4.97;1.00;;;;;;;5.51;nan;96162.66;2034711;29;20036;-53
2023/11/16 03:52:18;;;;;;;7.78;1.38;;;;;;;5.53;nan;96150.59;2034419;29;20059;-54
2023/11/16 03:53:19;;;;;;;5.43;1.20;;;;;;;5.55;nan;96154.84;2034775;29;20056;-53
2023/11/16 03:54:20;;;;;;;6.18;1.45;;;;;;;5.55;nan;96152.28;2034232;29;20051;-53
2023/11/16 03:55:21;;;;;;;5.18;1.55;;;;;;;5.54;nan;96143.72;2033993;29;20045;-54
2023/11/16 03:56:22;;;;;;;4.88;1.00;;;;;;;5.49;nan;96136.09;2034258;29;20448;-53
2023/11/16 03:57:24;;;;;;;6.80;1.60;;;;;;;5.52;nan;96146.31;2034840;29;20465;-53
2023/11/16 03:58:27;;;;;;;7.47;1.50;;;;;;;5.52;nan;96140.31;2033559;29;20465;-53
2023/11/16 03:59:28;;;;;;;4.57;1.50;;;;;;;5.56;nan;96144.53;2033291;29;20059;-53
2023/11/16 04:00:31;;;;;;;5.38;1.67;;;;;;;5.60;nan;96142.69;2034612;29;20052;-53
2023/11/16 04:01:36;;;;;;;4.72;1.27;;;;;;;5.60;nan;96143.53;2034577;29;20039;-53
2023/11/16 04:02:37;;;;;;;3.42;1.30;;;;;;;5.58;nan;96137.56;2034714;29;20043;-53
2023/11/16 04:03:39;;;;;;;4.88;1.25;;;;;;;5.59;nan;96138.44;2033303;29;20059;-54
2023/11/16 04:04:40;;;;;;;5.20;1.50;;;;;;;5.60;nan;96134.97;2033871;29;20422;-53
2023/11/16 04:05:41;;;;;;;5.80;1.23;;;;;;;5.58;nan;96129.84;2033621;29;20039;-54
2023/11/16 04:06:42;;;;;;;3.38;0.85;;;;;;;5.58;nan;96129.00;2026489;29;20393;-53
2023/11/16 04:07:43;;;;;;;3.78;1.20;;;;;;;5.55;nan;96127.34;2026668;29;20036;-53
2023/11/16 04:08:46;;;;;;;4.82;1.42;;;;;;;5.56;nan;96136.78;2033596;29;20071;-53
2023/11/16 04:09:47;;;;;;;8.23;1.70;;;;;;;5.56;nan;96131.66;2034306;29;20491;-54
2023/11/16 04:10:48;;;;;;;7.10;1.65;;;;;;;5.57;nan;96127.34;2034250;29;20036;-54
2023/11/16 04:11:50;;;;;;;7.82;1.42;;;;;;;5.56;nan;96120.47;2034635;29;20354;-54
2023/11/16 04:12:51;;;;;;;7.07;1.20;;;;;;;5.55;nan;96124.78;2034813;29;20036;-54
2023/11/16 04:13:52;;;;;;;2.08;0.98;;;;;;;5.58;nan;96116.13;2034105;29;20059;-53
2023/11/16 04:14:53;;;;;;;5.40;1.10;;;;;;;5.60;nan;96122.09;2034104;29;20066;-53
2023/11/16 04:15:56;;;;;;;6.38;1.35;;;;;;;5.61;nan;96121.19;2034374;29;20055;-52
2023/11/16 04:16:59;;;;;;;6.05;1.55;;;;;;;5.60;nan;96117.78;2034669;29;20040;-53
2023/11/16 04:18:00;;;;;;;5.18;1.20;;;;;;;5.63;nan;96116.84;2034474;29;20067;-53
2023/11/16 04:19:02;;;;;;;5.25;1.63;;;;;;;5.64;nan;96118.53;2034107;29;20107;-53
2023/11/16 04:20:07;;;;;;;3.45;0.93;;;;;;;5.61;nan;96100.59;2034148;29;20058;-53
2023/11/16 04:21:12;;;;;;;8.43;2.00;;;;;;;5.63;nan;96117.69;2041476;29;20047;-54
2023/11/16 04:22:16;;;;;;;4.60;1.13;;;;;;;5.59;nan;96104.97;2033830;29;20544;-53
2023/11/16 04:23:17;;;;;;;6.20;1.38;;;;;;;5.58;nan;96105.81;2033373;29;20523;-53
2023/11/16 04:24:19;;;;;;;3.45;1.10;;;;;;;5.56;nan;96100.72;2034096;29;20044;-53
2023/11/16 04:25:27;;;;;;;4.20;1.23;;;;;;;5.50;nan;96101.69;2033980;29;20055;-53
2023/11/16 04:26:29;;;;;;;6.72;1.33;;;;;;;5.47;nan;96096.63;2034020;29;20044;-53
2023/11/16 04:27:30;;;;;;;9.32;1.30;;;;;;;5.43;nan;96095.03;2033831;29;20043;-53
2023/11/16 04:28:33;;;;;;;5.10;1.27;;;;;;;5.40;nan;96086.53;2034393;29;20397;-54
2023/11/16 04:29:34;;;;;;;5.47;1.13;;;;;;;5.38;nan;96093.47;2033787;29;20048;-53
2023/11/16 04:30:35;;;;;;;7.47;1.55;;;;;;;5.33;nan;96091.00;2033998;29;20044;-53
2023/11/16 04:31:37;;;;;;;4.78;1.20;;;;;;;5.33;nan;96090.16;2033947;29;20048;-54
2023/11/16 04:32:42;;;;;;;10.85;1.55;;;;;;;5.28;nan;96083.38;2033263;29;20401;-54
2023/11/16 04:33:43;;;;;;;10.90;2.33;;;;;;;5.24;nan;96088.66;2034131;29;20040;-53
2023/11/16 04:34:44;;;;;;;6.18;1.67;;;;;;;5.21;nan;96088.72;2034513;29;20040;-53
2023/11/16 04:35:45;;;;;;;6.68;1.27;;;;;;;5.19;nan;96087.94;2034163;29;20051;-53
2023/11/16 04:36:52;;;;;;;7.90;1.73;;;;;;;5.19;nan;96075.06;2034569;29;20040;-53
2023/11/16 04:37:53;;;;;;;6.25;1.35;;;;;;;5.16;nan;96085.41;2034558;29;20048;-53
2023/11/16 04:38:56;;;;;;;8.50;1.27;;;;;;;5.12;nan;96078.66;2033661;29;20063;-53
2023/11/16 04:39:57;;;;;;;4.32;1.55;;;;;;;5.07;nan;96065.88;2038131;29;20048;-53
2023/11/16 04:40:58;;;;;;;6.35;1.92;;;;;;;5.02;nan;96076.28;2044826;29;20040;-53
2023/11/16 04:41:59;;;;;;;7.43;1.35;;;;;;;5.00;nan;96075.50;2042080;29;20119;-53
2023/11/16 04:43:00;;;;;;;7.28;1.75;;;;;;;4.96;nan;96068.72;2041508;29;20404;-53
2023/11/16 04:44:01;;;;;;;10.63;1.40;;;;;;;4.94;nan;96070.47;2042166;29;20035;-53
2023/11/16 04:45:03;;;;;;;6.32;1.85;;;;;;;4.94;nan;96078.19;2041839;29;20051;-53
2023/11/16 04:46:05;;;;;;;7.32;1.50;;;;;;;4.94;nan;96073.06;2042222;29;20055;-53
2023/11/16 04:47:07;;;;;;;5.32;1.30;;;;;;;4.97;nan;96085.88;2042056;29;20484;-53
2023/11/16 04:48:11;;;;;;;8.77;1.80;;;;;;;4.97;nan;96085.88;2042180;29;20036;-53
2023/11/16 04:49:13;;;;;;;6.70;1.30;;;;;;;5.00;nan;96080.66;2041810;29;20099;-53
2023/11/16 04:50:16;;;;;;;6.80;1.50;;;;;;;5.03;nan;96082.31;2042267;29;20047;-53
2023/11/16 04:51:17;;;;;;;5.97;1.52;;;;;;;5.05;nan;96083.97;2042341;29;20066;-52
2023/11/16 04:52:20;;;;;;;5.63;1.33;;;;;;;5.07;nan;96092.47;2041745;29;20058;-54
2023/11/16 04:53:21;;;;;;;4.43;1.40;;;;;;;5.09;nan;96093.28;2042197;29;20051;-53
2023/11/16 04:54:22;;;;;;;6.65;1.48;;;;;;;5.10;nan;96086.41;2041594;29;20047;-53
2023/11/16 04:55:23;;;;;;;4.68;1.17;;;;;;;5.15;nan;96074.28;2042057;29;20059;-53
2023/11/16 04:56:24;;;;;;;3.78;1.27;;;;;;;5.20;nan;96076.75;2042226;29;20036;-54
2023/11/16 04:57:25;;;;;;;8.70;1.58;;;;;;;5.21;nan;96070.69;2042537;29;20063;-53
2023/11/16 04:58:27;;;;;;;8.23;1.60;;;;;;;5.23;nan;96066.34;2042330;29;20027;-53
2023/11/16 04:59:29;;;;;;;6.32;1.60;;;;;;;5.22;nan;96067.25;2041934;29;20412;-53
2023/11/16 05:00:30;;;;;;;7.68;1.75;;;;;;;5.23;nan;96071.50;2033079;29;20052;-54
2023/11/16 05:01:31;;;;;;;8.52;1.70;;;;;;;5.21;nan;96063.84;2033666;29;20051;-53
2023/11/16 05:02:33;;;;;;;6.80;1.63;;;;;;;5.20;nan;96062.13;2042091;29;20044;-53